Weather at Buddy Harmel Airport

Public forecast

Using degrees Fahrenheit for public forecast. Weather courtesy of forecast.io.

Closest aviation weather report (METAR) to Buddy Harmel Airport

Closest report is Hale County Airport, 13.4 nm (24.9 km) ESE. Retrieved 2020/09/21 19:35 UTC (0 seconds ago):

KPVW 211935Z AUTO 10008KT 10SM CLR 25/05 A3019 RMK AO2 T02450047

Closest aviation forecast (TAF) to Buddy Harmel Airport

Closest forecast is Hale County Airport, 13.4 nm (24.9 km) ESE. Retrieved 2020/09/21 18:24 UTC (54 minutes ago):

TAF KPVW 211721Z 2118/2218 15008KT P6SM FEW250